Time;durP1;ratioP1;P1;durP2;ratioP2;P2;SDS_P1;SDS_P2;PMS_P1;PMS_P2;Temp;Humidity;BMP_temperature;BMP_pressure;BME280_temperature;BME280_humidity;BME280_pressure;Samples;Min_cycle;Max_cycle;Signal;HPM_P1;HPM_P2
2022/07/22 00:00:12;;;;;;;2.60;2.30;;;;;;;;;;5093162;28;20012;-60
2022/07/22 00:02:37;;;;;;;2.67;2.22;;;;;;;;;;5090783;28;20026;-60
2022/07/22 00:05:03;;;;;;;3.58;2.75;;;;;;;;;;5090506;28;20028;-60
2022/07/22 00:07:28;;;;;;;2.50;2.30;;;;;;;;;;5093127;28;20069;-61
2022/07/22 00:09:53;;;;;;;2.53;2.30;;;;;;;;;;5099288;28;20095;-60
2022/07/22 00:12:19;;;;;;;2.47;2.28;;;;;;;;;;5088057;28;20036;-60
2022/07/22 00:14:44;;;;;;;2.33;2.13;;;;;;;;;;5098308;28;20443;-60
2022/07/22 00:17:09;;;;;;;2.60;2.40;;;;;;;;;;5085702;28;20388;-59
2022/07/22 00:19:35;;;;;;;3.22;2.30;;;;;;;;;;5088773;28;20073;-60
2022/07/22 00:22:00;;;;;;;3.38;2.20;;;;;;;;;;5090688;28;20044;-60
2022/07/22 00:24:25;;;;;;;2.92;2.67;;;;;;;;;;5085483;28;20038;-60
2022/07/22 00:26:51;;;;;;;4.88;3.28;;;;;;;;;;5081223;28;20062;-60
2022/07/22 00:29:16;;;;;;;2.72;2.22;;;;;;;;;;5094598;28;20494;-60
2022/07/22 00:31:41;;;;;;;6.28;2.92;;;;;;;;;;5104176;28;20475;-60
2022/07/22 00:34:07;;;;;;;2.85;2.65;;;;;;;;;;5078964;28;20492;-60
2022/07/22 00:36:32;;;;;;;4.32;3.05;;;;;;;;;;5083459;28;20092;-57
2022/07/22 00:38:58;;;;;;;4.35;3.33;;;;;;;;;;5060435;28;20392;-60
2022/07/22 00:41:23;;;;;;;3.88;3.28;;;;;;;;;;5090566;28;20020;-59
2022/07/22 00:43:49;;;;;;;4.82;3.45;;;;;;;;;;5079850;28;20099;-60
2022/07/22 00:46:15;;;;;;;4.25;3.90;;;;;;;;;;5087415;28;20384;-60
2022/07/22 00:48:40;;;;;;;3.72;3.30;;;;;;;;;;5090110;28;20046;-60
2022/07/22 00:51:05;;;;;;;4.22;3.83;;;;;;;;;;5088129;28;20606;-60
2022/07/22 00:53:30;;;;;;;5.28;3.92;;;;;;;;;;5074200;28;20062;-60
2022/07/22 00:55:56;;;;;;;4.18;3.78;;;;;;;;;;5054979;28;20028;-60
2022/07/22 00:58:21;;;;;;;4.15;3.72;;;;;;;;;;5087423;28;20024;-59
2022/07/22 01:00:47;;;;;;;4.00;3.60;;;;;;;;;;5091265;28;20077;-59
2022/07/22 01:03:13;;;;;;;5.63;3.85;;;;;;;;;;5092766;28;20036;-59
2022/07/22 01:05:38;;;;;;;4.80;4.20;;;;;;;;;;5094478;28;20553;-60
2022/07/22 01:08:07;;;;;;;3.92;3.63;;;;;;;;;;5092359;28;20020;-60
2022/07/22 01:10:32;;;;;;;4.32;3.70;;;;;;;;;;5098116;28;20008;-60
2022/07/22 01:12:57;;;;;;;4.32;3.70;;;;;;;;;;5095066;28;20081;-60
2022/07/22 01:15:23;;;;;;;4.72;4.20;;;;;;;;;;5092642;28;20024;-60
2022/07/22 01:17:48;;;;;;;4.80;4.40;;;;;;;;;;5086228;28;20124;-61
2022/07/22 01:20:13;;;;;;;6.72;4.70;;;;;;;;;;5094232;28;20072;-60
2022/07/22 01:22:39;;;;;;;4.82;4.43;;;;;;;;;;5093112;28;20037;-60
2022/07/22 01:25:04;;;;;;;4.75;4.18;;;;;;;;;;5097333;28;20028;-59
2022/07/22 01:27:29;;;;;;;4.95;4.55;;;;;;;;;;5093747;28;20380;-60
2022/07/22 01:29:55;;;;;;;4.13;3.83;;;;;;;;;;5095245;28;20032;-59
2022/07/22 01:32:20;;;;;;;5.22;3.83;;;;;;;;;;5093517;28;20174;-59
2022/07/22 01:34:46;;;;;;;4.03;3.72;;;;;;;;;;5094403;28;20028;-60
2022/07/22 01:37:11;;;;;;;5.82;4.32;;;;;;;;;;5091330;28;20020;-60
2022/07/22 01:39:36;;;;;;;3.83;3.53;;;;;;;;;;5093489;28;20024;-60
2022/07/22 01:42:02;;;;;;;4.00;3.60;;;;;;;;;;5086394;28;20032;-60
2022/07/22 01:44:29;;;;;;;4.00;3.70;;;;;;;;;;5090250;28;20027;-60
2022/07/22 01:46:55;;;;;;;4.90;4.00;;;;;;;;;;5082318;28;20028;-60
2022/07/22 01:49:21;;;;;;;5.13;4.20;;;;;;;;;;5096660;28;20479;-60
2022/07/22 01:51:46;;;;;;;4.90;4.40;;;;;;;;;;5093859;28;20108;-60
2022/07/22 01:54:11;;;;;;;5.00;4.53;;;;;;;;;;5098400;28;20452;-60
2022/07/22 01:56:37;;;;;;;4.70;4.30;;;;;;;;;;5087409;28;20067;-61
2022/07/22 01:59:02;;;;;;;5.10;4.57;;;;;;;;;;5070965;28;20031;-60
2022/07/22 02:01:28;;;;;;;5.47;3.97;;;;;;;;;;5090884;28;20012;-62
2022/07/22 02:03:53;;;;;;;5.75;3.97;;;;;;;;;;5079053;28;20059;-60
2022/07/22 02:06:18;;;;;;;6.72;4.32;;;;;;;;;;5085474;28;20074;-60
2022/07/22 02:08:44;;;;;;;5.85;3.88;;;;;;;;;;5091095;28;20029;-61
2022/07/22 02:11:09;;;;;;;5.45;4.25;;;;;;;;;;5095252;28;20194;-60
2022/07/22 02:13:34;;;;;;;5.15;3.70;;;;;;;;;;5091786;28;20463;-61
2022/07/22 02:16:00;;;;;;;4.80;3.83;;;;;;;;;;5099495;28;20059;-59
2022/07/22 02:18:25;;;;;;;4.05;3.75;;;;;;;;;;5077059;28;20111;-60
2022/07/22 02:20:50;;;;;;;4.25;3.92;;;;;;;;;;5095705;28;20404;-61
2022/07/22 02:23:16;;;;;;;4.55;4.13;;;;;;;;;;5092354;28;20034;-57
2022/07/22 02:25:42;;;;;;;6.78;4.60;;;;;;;;;;5091557;28;20023;-60
2022/07/22 02:28:07;;;;;;;5.30;4.05;;;;;;;;;;5084136;28;20028;-60
2022/07/22 02:30:33;;;;;;;4.65;4.20;;;;;;;;;;5079458;28;20503;-60
2022/07/22 02:32:58;;;;;;;4.40;4.00;;;;;;;;;;5091756;28;20534;-60
2022/07/22 02:35:23;;;;;;;4.43;4.00;;;;;;;;;;5088469;28;20070;-60
2022/07/22 02:37:49;;;;;;;4.85;4.13;;;;;;;;;;5092280;28;20043;-60
2022/07/22 02:40:14;;;;;;;4.65;4.20;;;;;;;;;;5093797;28;20042;-60
2022/07/22 02:42:39;;;;;;;4.65;3.70;;;;;;;;;;5081278;28;20065;-60
2022/07/22 02:45:05;;;;;;;5.03;4.05;;;;;;;;;;5089038;28;20074;-60
2022/07/22 02:47:30;;;;;;;6.30;4.30;;;;;;;;;;5079077;28;20021;-60
2022/07/22 02:49:55;;;;;;;4.28;3.83;;;;;;;;;;5100604;28;20498;-60
2022/07/22 02:52:21;;;;;;;6.72;4.55;;;;;;;;;;5098191;28;20031;-60
2022/07/22 02:54:46;;;;;;;4.15;3.85;;;;;;;;;;5082769;28;20481;-60
2022/07/22 02:57:11;;;;;;;4.93;4.53;;;;;;;;;;5090763;28;20028;-60
2022/07/22 02:59:36;;;;;;;4.57;4.18;;;;;;;;;;5094147;28;20069;-61
2022/07/22 03:02:02;;;;;;;5.18;4.60;;;;;;;;;;5084396;28;20023;-60
2022/07/22 03:04:27;;;;;;;6.10;4.53;;;;;;;;;;5078265;28;20104;-60
2022/07/22 03:06:53;;;;;;;8.52;4.97;;;;;;;;;;5074646;28;20081;-60
2022/07/22 03:09:19;;;;;;;4.68;4.28;;;;;;;;;;5090644;28;20114;-61
2022/07/22 03:11:44;;;;;;;5.07;4.53;;;;;;;;;;5093633;28;20019;-60
2022/07/22 03:14:09;;;;;;;5.63;4.93;;;;;;;;;;5093297;28;20036;-57
2022/07/22 03:16:35;;;;;;;5.30;4.82;;;;;;;;;;5079048;28;20032;-60
2022/07/22 03:19:00;;;;;;;6.50;4.80;;;;;;;;;;5086944;28;20114;-59
2022/07/22 03:21:25;;;;;;;5.22;4.82;;;;;;;;;;5088865;28;20043;-59
2022/07/22 03:23:53;;;;;;;5.47;4.60;;;;;;;;;;5073601;28;20111;-60
2022/07/22 03:26:19;;;;;;;5.28;4.43;;;;;;;;;;5094544;28;20019;-60
2022/07/22 03:28:44;;;;;;;4.85;4.35;;;;;;;;;;5089719;28;20016;-61
2022/07/22 03:31:09;;;;;;;4.80;4.40;;;;;;;;;;5092643;28;20468;-59
2022/07/22 03:33:35;;;;;;;5.07;4.43;;;;;;;;;;5095013;28;20102;-60
2022/07/22 03:36:00;;;;;;;5.38;4.82;;;;;;;;;;5079510;28;20019;-59
2022/07/22 03:38:25;;;;;;;5.28;4.88;;;;;;;;;;5088139;28;20070;-60
2022/07/22 03:40:50;;;;;;;5.20;4.38;;;;;;;;;;5076631;28;20023;-59
2022/07/22 03:43:16;;;;;;;5.80;5.30;;;;;;;;;;5092330;28;20436;-60
2022/07/22 03:45:41;;;;;;;5.35;4.90;;;;;;;;;;5091470;28;20031;-60
2022/07/22 03:48:06;;;;;;;5.65;4.70;;;;;;;;;;5074334;28;20020;-60
2022/07/22 03:50:32;;;;;;;5.00;4.50;;;;;;;;;;5099997;28;20092;-60
2022/07/22 03:52:57;;;;;;;4.75;4.45;;;;;;;;;;5089712;28;20024;-60
2022/07/22 03:55:22;;;;;;;5.28;4.78;;;;;;;;;;5092964;28;20024;-61
2022/07/22 03:57:47;;;;;;;5.18;4.78;;;;;;;;;;5092444;28;20077;-61
2022/07/22 04:00:13;;;;;;;4.63;4.22;;;;;;;;;;5088351;28;20040;-60
2022/07/22 04:02:38;;;;;;;4.80;4.40;;;;;;;;;;5091359;28;20099;-60
2022/07/22 04:05:04;;;;;;;5.45;4.95;;;;;;;;;;5076795;28;20032;-60
2022/07/22 04:07:29;;;;;;;5.40;4.90;;;;;;;;;;5090742;28;20024;-60
2022/07/22 04:10:04;;;;;;;4.68;4.28;;;;;;;;;;5090096;28;20484;-60
2022/07/22 04:12:31;;;;;;;5.22;4.75;;;;;;;;;;5091441;28;20039;-59
2022/07/22 04:14:56;;;;;;;5.82;5.32;;;;;;;;;;5079401;28;20024;-60
2022/07/22 04:17:21;;;;;;;7.10;5.43;;;;;;;;;;5068240;28;20388;-60
2022/07/22 04:19:46;;;;;;;7.38;5.05;;;;;;;;;;5089512;28;20035;-60
2022/07/22 04:22:12;;;;;;;6.20;5.47;;;;;;;;;;5090798;28;20121;-61
2022/07/22 04:24:37;;;;;;;5.68;5.28;;;;;;;;;;5091512;28;20071;-61
2022/07/22 04:27:02;;;;;;;6.63;5.93;;;;;;;;;;5088856;28;20028;-58
2022/07/22 04:29:28;;;;;;;5.82;5.28;;;;;;;;;;5079546;28;20119;-60
2022/07/22 04:31:53;;;;;;;5.75;5.25;;;;;;;;;;5089265;28;20020;-60
2022/07/22 04:34:18;;;;;;;5.47;4.97;;;;;;;;;;5092022;28;20027;-60
2022/07/22 04:36:43;;;;;;;6.30;5.45;;;;;;;;;;5088531;28;20036;-60
2022/07/22 04:39:09;;;;;;;5.80;5.30;;;;;;;;;;5083829;28;20024;-60
2022/07/22 04:41:34;;;;;;;6.18;5.38;;;;;;;;;;5090681;28;20560;-60
2022/07/22 04:43:59;;;;;;;7.70;6.78;;;;;;;;;;5105447;28;20026;-61
2022/07/22 04:46:24;;;;;;;8.55;7.05;;;;;;;;;;5091945;28;20073;-60
2022/07/22 04:48:50;;;;;;;5.75;5.15;;;;;;;;;;5090889;28;20023;-59
2022/07/22 04:51:15;;;;;;;10.60;6.65;;;;;;;;;;5092261;28;20031;-61
2022/07/22 04:53:40;;;;;;;8.57;6.70;;;;;;;;;;5072988;28;20581;-60
2022/07/22 04:56:06;;;;;;;7.80;6.28;;;;;;;;;;5072748;28;20024;-60
2022/07/22 04:58:31;;;;;;;7.03;5.30;;;;;;;;;;5094565;28;20110;-59
2022/07/22 05:00:56;;;;;;;6.35;5.75;;;;;;;;;;5068195;28;20031;-60
2022/07/22 05:03:24;;;;;;;5.30;4.80;;;;;;;;;;5071529;28;20025;-60
2022/07/22 05:05:49;;;;;;;6.28;5.65;;;;;;;;;;5101776;28;20036;-61
2022/07/22 05:08:14;;;;;;;7.25;4.95;;;;;;;;;;5091467;28;20081;-61
2022/07/22 05:10:40;;;;;;;5.47;4.85;;;;;;;;;;5090150;28;20428;-59
2022/07/22 05:13:05;;;;;;;5.38;4.70;;;;;;;;;;5091081;28;20056;-61
2022/07/22 05:15:30;;;;;;;4.63;4.05;;;;;;;;;;5086623;28;20035;-60
2022/07/22 05:17:56;;;;;;;5.50;5.00;;;;;;;;;;5082146;28;20028;-60
2022/07/22 05:20:21;;;;;;;6.50;4.78;;;;;;;;;;5087377;28;20136;-60
2022/07/22 05:22:46;;;;;;;5.75;5.15;;;;;;;;;;5091238;28;20028;-61
2022/07/22 05:25:11;;;;;;;5.75;4.82;;;;;;;;;;5093327;28;20090;-61
2022/07/22 05:27:37;;;;;;;5.45;5.03;;;;;;;;;;5089053;28;20024;-61
2022/07/22 05:30:02;;;;;;;5.70;4.90;;;;;;;;;;5088488;28;20098;-61
2022/07/22 05:32:28;;;;;;;5.95;5.32;;;;;;;;;;5090532;28;20039;-61
2022/07/22 05:34:53;;;;;;;5.00;4.50;;;;;;;;;;5090142;28;20031;-60
2022/07/22 05:37:18;;;;;;;6.07;4.47;;;;;;;;;;5090323;28;20387;-60
2022/07/22 05:39:44;;;;;;;5.80;4.55;;;;;;;;;;5086654;28;20050;-56
2022/07/22 05:42:09;;;;;;;6.60;4.95;;;;;;;;;;5084696;28;20084;-60
2022/07/22 05:44:34;;;;;;;4.00;3.60;;;;;;;;;;5089489;28;20036;-60
2022/07/22 05:47:00;;;;;;;4.75;4.20;;;;;;;;;;5090425;28;20028;-60
2022/07/22 05:49:26;;;;;;;3.88;3.55;;;;;;;;;;5082086;28;20027;-60
2022/07/22 05:51:52;;;;;;;3.80;3.50;;;;;;;;;;5088923;28;20016;-59
2022/07/22 05:54:17;;;;;;;5.10;3.80;;;;;;;;;;5089336;28;20093;-60
2022/07/22 05:56:42;;;;;;;4.15;3.72;;;;;;;;;;5075279;28;20027;-59
2022/07/22 05:59:08;;;;;;;3.63;3.33;;;;;;;;;;5075927;28;20055;-60
2022/07/22 06:01:33;;;;;;;3.88;3.58;;;;;;;;;;5093396;28;20016;-60
2022/07/22 06:03:58;;;;;;;4.40;3.25;;;;;;;;;;5086356;28;20020;-60
2022/07/22 06:06:23;;;;;;;3.58;3.17;;;;;;;;;;5089700;28;20482;-60
2022/07/22 06:08:49;;;;;;;3.72;3.42;;;;;;;;;;5094080;28;20035;-62
2022/07/22 06:11:14;;;;;;;3.30;3.05;;;;;;;;;;5093934;28;20021;-60
2022/07/22 06:13:39;;;;;;;3.83;3.33;;;;;;;;;;5094749;28;20070;-57
2022/07/22 06:16:05;;;;;;;3.28;3.08;;;;;;;;;;5093403;28;20051;-59
2022/07/22 06:18:30;;;;;;;3.75;3.15;;;;;;;;;;5091494;28;20357;-59
2022/07/22 06:20:55;;;;;;;3.97;3.17;;;;;;;;;;5091555;28;20045;-60
2022/07/22 06:23:23;;;;;;;4.65;3.70;;;;;;;;;;5094004;28;20059;-60
2022/07/22 06:25:48;;;;;;;3.75;3.38;;;;;;;;;;5093778;28;20073;-59
2022/07/22 06:28:13;;;;;;;4.53;3.50;;;;;;;;;;5093321;28;20474;-59
2022/07/22 06:30:39;;;;;;;4.75;3.67;;;;;;;;;;5079220;28;20032;-60
2022/07/22 06:33:04;;;;;;;4.80;4.13;;;;;;;;;;5093746;28;20028;-60
2022/07/22 06:35:29;;;;;;;3.92;3.53;;;;;;;;;;5094430;28;20012;-60
2022/07/22 06:37:55;;;;;;;4.30;3.90;;;;;;;;;;5076706;28;20162;-60
2022/07/22 06:40:20;;;;;;;4.28;3.88;;;;;;;;;;5074972;28;20098;-60
2022/07/22 06:42:45;;;;;;;5.30;4.38;;;;;;;;;;5091998;28;20120;-60
2022/07/22 06:45:11;;;;;;;4.85;4.45;;;;;;;;;;5094446;28;20081;-63
2022/07/22 06:47:36;;;;;;;5.40;4.90;;;;;;;;;;5090304;28;20492;-60
2022/07/22 06:50:03;;;;;;;5.65;4.70;;;;;;;;;;5089617;28;20036;-63
2022/07/22 06:52:28;;;;;;;4.43;3.95;;;;;;;;;;5090630;28;20020;-58
2022/07/22 06:54:54;;;;;;;4.90;4.35;;;;;;;;;;5088863;28;20020;-57
2022/07/22 06:57:19;;;;;;;4.10;3.70;;;;;;;;;;5091606;28;20021;-58
2022/07/22 06:59:44;;;;;;;5.05;3.63;;;;;;;;;;5092978;28;20444;-57
2022/07/22 07:02:09;;;;;;;4.32;3.92;;;;;;;;;;5080318;28;20032;-58
2022/07/22 07:04:35;;;;;;;4.10;3.80;;;;;;;;;;5089026;28;20063;-67
2022/07/22 07:07:00;;;;;;;5.15;4.63;;;;;;;;;;5092814;28;20549;-66
2022/07/22 07:09:25;;;;;;;4.90;4.43;;;;;;;;;;5080165;28;20068;-52
2022/07/22 07:11:51;;;;;;;4.18;3.85;;;;;;;;;;5087379;28;20040;-64
2022/07/22 07:14:16;;;;;;;5.15;4.38;;;;;;;;;;5101918;28;20041;-64
2022/07/22 07:16:41;;;;;;;5.85;4.72;;;;;;;;;;5113882;28;20076;-64
2022/07/22 07:19:06;;;;;;;5.13;4.72;;;;;;;;;;5072825;28;20116;-64
2022/07/22 07:21:32;;;;;;;4.43;4.03;;;;;;;;;;5074379;28;20059;-64
2022/07/22 07:23:58;;;;;;;5.10;4.50;;;;;;;;;;5091830;28;20016;-64
2022/07/22 07:26:23;;;;;;;5.47;4.07;;;;;;;;;;5093765;28;20065;-63
2022/07/22 07:28:48;;;;;;;4.78;4.20;;;;;;;;;;5075364;28;20118;-63
2022/07/22 07:31:14;;;;;;;6.07;4.45;;;;;;;;;;5087352;28;20124;-64
2022/07/22 07:33:39;;;;;;;4.63;4.15;;;;;;;;;;5088606;28;20024;-67
2022/07/22 07:36:04;;;;;;;6.47;4.70;;;;;;;;;;5092564;28;20020;-64
